Fish Creek, WI

11:32 PM CST on March 03, 2015 (GMT -0600)
Egg Harbor WI | Change Station
CLOSE
Current Station
Personal Weather Station
Location: Egg Harbor, WI
Elevation: 650 ft
Nearby Weather Stations

Elev 650 ft 45.05 °N, 87.28 °W | Updated 8 seconds ago

Overcast
Overcast
22.3 °F
Feels Like 22 °F
N
0.0
Wind Variable Wind from WNW
Gusts 2.0 mph

Today
High -- | Low -- °F
--% Chance of Precip.
Yesterday
High -- | Low -- °F
Precip. -- in
6:23 AM 5:38 PM
Waxing Gibbous, 98% visible
Pressure 29.73 in
Visibility 10.0 miles
Clouds Scattered Clouds 2800 ft
Scattered Clouds 3700 ft
Windchill 22 °F
Dew Point 20 °F
Humidity 92%
Rainfall 0.00 in
Snow Depth Not available.
UV 0 out of 12
Pollen .40 out of 12
Air Quality Not available.
Flu Activity Not available.
METAR KMNM 040515Z AUTO 32007KT 280V340 10SM SCT028 SCT037 M04/M10 A2973 RMK AO1

More Conditions Fewer Conditions

Pressure 29.73 in
Visibility 10.0 miles
Clouds Scattered Clouds 2800 ft
Scattered Clouds 3700 ft
Windchill 22 °F
Dew Point 20 °F
Humidity 92%
Rainfall 0.00 in
Snow Depth Not available.
UV 0 out of 12
Pollen .40 out of 12
Air Quality Not available.
Flu Activity Not available.
METAR KMNM 040515Z AUTO 32007KT 280V340 10SM SCT028 SCT037 M04/M10 A2973 RMK AO1

More Conditions Fewer Conditions

10-Day Weather Forecast

Almanac

Astronomy

Mar. 03, 2015 Rise Set
Actual Time
Civil Twilight
Nautical Twilight
Astronomical Twilight
Moon
Length of Visible Light
Length of Day
Tomorrow will be .
, % of the Moon is Illuminated

Today's Extremes

State Highs State Lows

Community

WunderPhotos

Upload Photos

1,802,400 photos uploaded!

WunderBlogs® & News

Nearby

Air Quality

  Air Quality AQ Index Pollutant
Not available.

Snow Depth

Station Depth Elevation

Earthquake Activity

City Distance Mag. Time & Date
Minimum magnitude displayed is 2.5.

Coastal Water Temperatures

Place Temperature

Nearby Weather Stations